Time;durP1;ratioP1;P1;durP2;ratioP2;P2;SDS_P1;SDS_P2;PMS_P1;PMS_P2;Temp;Humidity;BMP_temperature;BMP_pressure;BME280_temperature;BME280_humidity;BME280_pressure;Samples;Min_cycle;Max_cycle;Signal;HPM_P1;HPM_P2
2024/01/18 00:04:16;;;;;;;16.03;9.07;;;;;;;;;;5074051;28;20218;-35
2024/01/18 00:06:47;;;;;;;10.07;7.00;;;;;;;;;;5070745;28;20204;-32
2024/01/18 00:09:19;;;;;;;14.37;8.63;;;;;;;;;;5077625;28;20201;-32
2024/01/18 00:11:49;;;;;;;14.47;9.13;;;;;;;;;;5082106;28;20197;-31
2024/01/18 00:14:27;;;;;;;14.57;9.30;;;;;;;;;;5077431;28;20677;-32
2024/01/18 00:16:58;;;;;;;16.80;11.27;;;;;;;;;;5073912;28;20204;-33
2024/01/18 00:19:28;;;;;;;17.50;11.60;;;;;;;;;;5070014;28;20225;-30
2024/01/18 00:22:07;;;;;;;19.40;11.73;;;;;;;;;;5071667;28;20235;-32
2024/01/18 00:24:50;;;;;;;19.57;13.40;;;;;;;;;;5084037;28;20220;-30
2024/01/18 00:30:01;;;;;;;9.53;6.43;;;;;;;;;;5076292;28;20224;-32
2024/01/18 00:32:30;;;;;;;10.10;5.90;;;;;;;;;;5083237;28;20208;-36
2024/01/18 00:35:04;;;;;;;6.47;3.90;;;;;;;;;;5064671;28;20286;-31
2024/01/18 00:37:39;;;;;;;3.30;3.00;;;;;;;;;;5069016;28;20217;-35
2024/01/18 00:40:11;;;;;;;3.97;3.40;;;;;;;;;;5061117;28;20245;-36
2024/01/18 00:42:43;;;;;;;2.90;2.60;;;;;;;;;;5080714;28;20205;-30
2024/01/18 00:45:13;;;;;;;3.17;2.80;;;;;;;;;;5063584;28;20221;-32
2024/01/18 00:47:43;;;;;;;2.80;2.40;;;;;;;;;;5082730;28;20245;-35
2024/01/18 00:50:16;;;;;;;2.37;2.17;;;;;;;;;;5072623;28;20222;-31
2024/01/18 01:00:31;;;;;;;1.77;1.33;;;;;;;;;;5081848;28;20243;-28
2024/01/18 01:03:03;;;;;;;0.90;0.90;;;;;;;;;;5086413;28;20242;-27
2024/01/18 01:05:33;;;;;;;1.10;1.10;;;;;;;;;;5064962;28;20251;-26
2024/01/18 01:08:05;;;;;;;1.60;1.50;;;;;;;;;;5077750;28;20204;-26
2024/01/18 01:10:34;;;;;;;1.00;1.00;;;;;;;;;;5074385;28;20232;-28
2024/01/18 01:15:35;;;;;;;1.37;1.27;;;;;;;;;;5055037;28;20228;-31
2024/01/18 01:18:13;;;;;;;1.50;1.30;;;;;;;;;;5058185;28;20235;-32
2024/01/18 01:20:48;;;;;;;1.00;1.00;;;;;;;;;;5061213;28;20233;-29
2024/01/18 01:23:20;;;;;;;1.07;1.03;;;;;;;;;;5072802;28;20208;-39
2024/01/18 01:25:59;;;;;;;1.10;1.10;;;;;;;;;;5072866;28;20248;-34
2024/01/18 01:28:34;;;;;;;4.03;3.53;;;;;;;;;;5072308;28;20208;-34
2024/01/18 01:31:07;;;;;;;4.30;2.53;;;;;;;;;;5055418;28;20225;-29
2024/01/18 01:33:41;;;;;;;13.17;8.33;;;;;;;;;;5062599;28;20343;-36
2024/01/18 01:36:10;;;;;;;10.70;8.10;;;;;;;;;;5065869;28;20201;-29
2024/01/18 01:38:46;;;;;;;9.77;8.13;;;;;;;;;;5070539;28;20266;-35
2024/01/18 01:41:17;;;;;;;7.53;6.10;;;;;;;;;;5072449;28;20229;-34
2024/01/18 01:44:04;;;;;;;10.47;7.40;;;;;;;;;;5068193;28;20209;-33
2024/01/18 01:46:39;;;;;;;8.47;6.13;;;;;;;;;;5069715;28;20253;-31
2024/01/18 01:49:11;;;;;;;7.37;5.30;;;;;;;;;;5069467;28;20296;-29
2024/01/18 01:51:47;;;;;;;5.90;4.20;;;;;;;;;;5065464;28;20728;-31
2024/01/18 01:54:22;;;;;;;10.23;6.63;;;;;;;;;;5072032;28;20227;-34
2024/01/18 01:56:59;;;;;;;8.53;7.10;;;;;;;;;;5068473;28;20222;-32
2024/01/18 01:59:32;;;;;;;11.03;7.43;;;;;;;;;;5072573;28;20224;-30
2024/01/18 02:02:16;;;;;;;9.83;7.07;;;;;;;;;;5072905;28;20208;-31
2024/01/18 02:04:51;;;;;;;9.67;7.03;;;;;;;;;;5065251;28;20327;-32
2024/01/18 02:07:22;;;;;;;8.93;6.60;;;;;;;;;;5065533;28;20205;-34
2024/01/18 02:09:56;;;;;;;9.60;6.23;;;;;;;;;;5075588;28;20224;-31
2024/01/18 02:12:26;;;;;;;8.33;5.63;;;;;;;;;;5076507;28;20286;-34
2024/01/18 02:15:04;;;;;;;11.20;5.90;;;;;;;;;;5061676;28;20240;-31
2024/01/18 02:17:35;;;;;;;10.90;7.47;;;;;;;;;;5075398;28;20209;-32
2024/01/18 02:20:12;;;;;;;14.47;7.93;;;;;;;;;;5069773;28;20334;-35
2024/01/18 02:22:48;;;;;;;11.73;7.60;;;;;;;;;;5073973;28;20219;-30
2024/01/18 02:25:24;;;;;;;8.50;6.63;;;;;;;;;;5075728;28;20225;-35
2024/01/18 02:28:04;;;;;;;7.40;5.93;;;;;;;;;;5074380;28;20201;-33
2024/01/18 02:30:45;;;;;;;8.77;5.83;;;;;;;;;;5070499;28;20228;-35
2024/01/18 02:33:19;;;;;;;8.93;5.07;;;;;;;;;;5073309;28;20225;-35
2024/01/18 02:35:54;;;;;;;5.23;4.40;;;;;;;;;;5065093;28;20287;-35
2024/01/18 02:38:32;;;;;;;6.90;3.60;;;;;;;;;;5071068;28;20197;-32
2024/01/18 02:41:08;;;;;;;4.33;2.93;;;;;;;;;;5068567;28;20343;-29
2024/01/18 02:43:51;;;;;;;4.60;3.37;;;;;;;;;;5067685;28;20216;-35
2024/01/18 02:46:21;;;;;;;5.00;4.07;;;;;;;;;;5070208;28;20219;-32
2024/01/18 02:48:57;;;;;;;9.27;6.27;;;;;;;;;;5072794;28;20209;-38
2024/01/18 02:51:24;;;;;;;10.73;6.43;;;;;;;;;;5062596;28;20201;-35
2024/01/18 02:53:56;;;;;;;6.77;5.47;;;;;;;;;;5074829;28;20202;-34
2024/01/18 03:02:08;;;;;;;9.63;6.90;;;;;;;;;;5077499;28;20236;-32
2024/01/18 03:04:42;;;;;;;9.03;5.80;;;;;;;;;;5077170;28;20297;-34
2024/01/18 03:07:33;;;;;;;9.37;6.20;;;;;;;;;;5074667;28;20303;-35
2024/01/18 03:10:09;;;;;;;12.73;8.30;;;;;;;;;;5079166;28;20232;-32
2024/01/18 03:12:39;;;;;;;14.13;9.33;;;;;;;;;;5078242;28;20208;-31
2024/01/18 03:15:20;;;;;;;13.53;9.17;;;;;;;;;;5056851;28;20224;-35
2024/01/18 03:17:50;;;;;;;12.80;7.93;;;;;;;;;;5089599;28;20203;-29
2024/01/18 03:20:24;;;;;;;12.13;7.13;;;;;;;;;;5070513;28;20225;-31
2024/01/18 03:22:55;;;;;;;7.63;5.00;;;;;;;;;;5075115;28;20213;-34
2024/01/18 03:25:29;;;;;;;8.17;5.83;;;;;;;;;;5083141;28;20237;-33
2024/01/18 03:28:02;;;;;;;6.63;3.93;;;;;;;;;;5058336;28;20284;-36
2024/01/18 03:30:32;;;;;;;5.97;4.93;;;;;;;;;;5075419;28;20239;-29
2024/01/18 03:33:03;;;;;;;6.30;4.17;;;;;;;;;;5062895;28;20225;-33
2024/01/18 03:35:36;;;;;;;4.77;3.50;;;;;;;;;;5066030;28;20205;-30
2024/01/18 03:38:09;;;;;;;15.73;7.93;;;;;;;;;;5069559;28;20263;-36
2024/01/18 03:40:47;;;;;;;12.37;7.13;;;;;;;;;;5083079;28;20239;-32
2024/01/18 03:43:17;;;;;;;10.27;7.00;;;;;;;;;;5081167;28;20271;-34
2024/01/18 03:45:47;;;;;;;11.90;7.77;;;;;;;;;;5065665;28;20253;-33
2024/01/18 03:48:16;;;;;;;11.27;8.07;;;;;;;;;;5080092;28;20224;-35
2024/01/18 03:50:49;;;;;;;12.00;8.03;;;;;;;;;;5068685;28;20233;-32
2024/01/18 03:53:20;;;;;;;14.13;7.83;;;;;;;;;;5071385;28;20302;-36
2024/01/18 03:55:51;;;;;;;13.47;7.50;;;;;;;;;;5082399;28;20287;-29
2024/01/18 03:58:21;;;;;;;8.63;6.20;;;;;;;;;;5085489;28;20204;-32
2024/01/18 04:00:55;;;;;;;11.23;5.73;;;;;;;;;;5061369;28;20238;-31
2024/01/18 04:03:27;;;;;;;5.97;4.20;;;;;;;;;;5063142;28;20212;-32
2024/01/18 04:06:01;;;;;;;6.23;4.70;;;;;;;;;;5063034;28;20427;-34
2024/01/18 04:08:36;;;;;;;5.67;4.57;;;;;;;;;;5069340;28;20244;-36
2024/01/18 04:11:07;;;;;;;5.30;3.77;;;;;;;;;;5062550;28;20259;-36
2024/01/18 04:13:55;;;;;;;4.67;3.20;;;;;;;;;;5069993;28;20197;-35
2024/01/18 04:16:26;;;;;;;4.77;3.93;;;;;;;;;;5074837;28;20279;-34
2024/01/18 04:18:59;;;;;;;6.80;4.20;;;;;;;;;;5081779;28;20215;-36
2024/01/18 04:21:32;;;;;;;5.83;4.10;;;;;;;;;;5061029;28;20202;-32
2024/01/18 04:24:13;;;;;;;9.57;5.03;;;;;;;;;;5072772;28;20225;-33
2024/01/18 04:26:49;;;;;;;8.13;5.90;;;;;;;;;;5079025;28;20237;-32
2024/01/18 04:29:23;;;;;;;11.60;5.97;;;;;;;;;;5070177;28;20238;-33
2024/01/18 04:31:56;;;;;;;11.60;5.93;;;;;;;;;;5066889;28;20213;-34
2024/01/18 04:34:37;;;;;;;9.60;5.93;;;;;;;;;;5071210;28;20209;-34
2024/01/18 04:37:13;;;;;;;8.27;5.23;;;;;;;;;;5068826;28;20205;-36
2024/01/18 04:39:46;;;;;;;8.33;5.13;;;;;;;;;;5075358;28;20233;-33
2024/01/18 04:42:19;;;;;;;8.73;4.90;;;;;;;;;;5063789;28;20250;-31
2024/01/18 04:44:49;;;;;;;7.83;4.83;;;;;;;;;;5064757;28;20210;-33
2024/01/18 04:47:18;;;;;;;7.17;4.70;;;;;;;;;;5078831;28;20223;-33
2024/01/18 04:49:50;;;;;;;5.10;4.07;;;;;;;;;;5074232;28;20268;-36
2024/01/18 04:52:22;;;;;;;6.13;4.33;;;;;;;;;;5060314;28;20201;-35
2024/01/18 04:54:56;;;;;;;10.50;6.03;;;;;;;;;;5073268;28;20205;-36
2024/01/18 04:57:28;;;;;;;8.13;5.53;;;;;;;;;;5078164;28;20201;-34
2024/01/18 04:59:58;;;;;;;9.93;6.17;;;;;;;;;;5068853;28;20412;-36
2024/01/18 05:02:26;;;;;;;13.50;8.07;;;;;;;;;;5072513;28;20212;-32
2024/01/18 05:04:57;;;;;;;13.97;6.97;;;;;;;;;;5055014;28;20236;-34
2024/01/18 05:07:36;;;;;;;10.60;6.87;;;;;;;;;;5061970;28;20236;-36
2024/01/18 05:10:11;;;;;;;9.40;5.90;;;;;;;;;;5084141;28;20226;-35
2024/01/18 05:12:52;;;;;;;10.20;6.23;;;;;;;;;;5055169;28;20205;-34
2024/01/18 05:15:23;;;;;;;10.87;6.17;;;;;;;;;;5064048;28;20224;-32
2024/01/18 05:17:57;;;;;;;12.33;6.57;;;;;;;;;;5074396;28;20212;-36
2024/01/18 05:20:26;;;;;;;11.50;7.77;;;;;;;;;;5065216;28;20289;-36
2024/01/18 05:22:57;;;;;;;14.67;8.50;;;;;;;;;;5075914;28;20208;-31
2024/01/18 05:25:37;;;;;;;11.80;7.37;;;;;;;;;;5077964;28;20202;-31
2024/01/18 05:28:12;;;;;;;13.20;7.37;;;;;;;;;;5060790;28;20225;-32
2024/01/18 05:30:45;;;;;;;12.90;7.20;;;;;;;;;;5076825;28;20236;-33
2024/01/18 05:33:19;;;;;;;14.03;7.83;;;;;;;;;;5073481;28;20221;-31
2024/01/18 05:35:55;;;;;;;14.10;6.87;;;;;;;;;;5056018;28;20213;-30
2024/01/18 05:38:26;;;;;;;13.10;7.47;;;;;;;;;;5074432;28;20283;-32
2024/01/18 05:41:05;;;;;;;13.80;7.90;;;;;;;;;;5090278;28;20229;-37
2024/01/18 05:43:36;;;;;;;12.13;8.03;;;;;;;;;;5077061;28;20656;-35
2024/01/18 05:46:04;;;;;;;11.67;6.90;;;;;;;;;;5061165;28;20210;-30
2024/01/18 05:48:39;;;;;;;13.63;7.90;;;;;;;;;;5066951;28;20739;-32
2024/01/18 05:56:20;;;;;;;12.73;8.53;;;;;;;;;;5075750;28;20590;-26
2024/01/18 05:58:53;;;;;;;12.43;7.90;;;;;;;;;;5081408;28;20205;-26
2024/01/18 06:01:28;;;;;;;14.60;8.07;;;;;;;;;;5068517;28;20225;-27
2024/01/18 06:04:06;;;;;;;34.17;7.93;;;;;;;;;;5069255;28;20300;-27
2024/01/18 06:06:40;;;;;;;12.60;6.77;;;;;;;;;;5067135;28;20218;-25
2024/01/18 06:09:09;;;;;;;15.70;8.47;;;;;;;;;;5071443;28;20206;-26
2024/01/18 06:11:45;;;;;;;11.17;7.00;;;;;;;;;;5072335;28;20263;-29
2024/01/18 06:14:15;;;;;;;15.77;8.97;;;;;;;;;;5073081;28;20207;-27
2024/01/18 06:19:16;;;;;;;19.67;9.47;;;;;;;;;;5078623;28;20218;-37
2024/01/18 06:22:21;;;;;;;21.93;10.43;;;;;;;;;;5070447;28;20287;-32
2024/01/18 06:24:56;;;;;;;18.87;8.57;;;;;;;;;;5107577;28;20208;-35
2024/01/18 06:27:42;;;;;;;19.37;8.63;;;;;;;;;;5103180;28;20227;-31
2024/01/18 06:30:20;;;;;;;15.13;8.57;;;;;;;;;;5095591;28;20310;-35
2024/01/18 06:32:49;;;;;;;17.10;9.20;;;;;;;;;;5097101;28;20216;-33
2024/01/18 06:35:22;;;;;;;22.33;8.57;;;;;;;;;;5082551;28;20204;-38
2024/01/18 06:37:51;;;;;;;14.10;7.80;;;;;;;;;;5088893;28;20251;-33
2024/01/18 06:40:22;;;;;;;13.07;8.00;;;;;;;;;;5105140;28;20311;-33
2024/01/18 06:42:56;;;;;;;14.07;7.97;;;;;;;;;;5102319;28;20204;-32
2024/01/18 06:50:35;;;;;;;14.73;7.43;;;;;;;;;;5062201;28;20238;-33
2024/01/18 06:53:05;;;;;;;11.40;5.77;;;;;;;;;;5074402;28;20212;-32
2024/01/18 06:55:48;;;;;;;12.83;7.10;;;;;;;;;;5081964;28;20232;-35
2024/01/18 06:58:20;;;;;;;27.20;8.27;;;;;;;;;;5075012;28;20205;-35
2024/01/18 07:00:53;;;;;;;16.17;7.40;;;;;;;;;;5067303;28;20718;-33
2024/01/18 07:03:30;;;;;;;11.97;7.03;;;;;;;;;;5074529;28;20200;-32
2024/01/18 07:06:02;;;;;;;13.20;6.03;;;;;;;;;;5065380;28;20213;-35
2024/01/18 07:08:36;;;;;;;9.47;5.10;;;;;;;;;;5083252;28;20276;-36
2024/01/18 07:11:10;;;;;;;5.87;4.20;;;;;;;;;;5082959;28;20228;-36
2024/01/18 07:13:47;;;;;;;6.57;4.20;;;;;;;;;;5063052;28;20291;-35
2024/01/18 07:16:22;;;;;;;5.83;4.20;;;;;;;;;;5071151;28;20213;-32
2024/01/18 07:19:03;;;;;;;3.93;3.27;;;;;;;;;;5076603;28;20208;-35
2024/01/18 07:24:26;;;;;;;5.30;3.10;;;;;;;;;;5075302;28;20194;-38
2024/01/18 07:27:26;;;;;;;6.30;3.00;;;;;;;;;;5075960;28;20229;-35
2024/01/18 07:29:58;;;;;;;1.63;1.53;;;;;;;;;;5072892;28;20229;-32
2024/01/18 07:32:36;;;;;;;2.20;2.00;;;;;;;;;;5086965;28;20228;-34
2024/01/18 07:35:11;;;;;;;1.90;1.70;;;;;;;;;;5069873;28;20221;-33
2024/01/18 07:37:44;;;;;;;1.97;1.77;;;;;;;;;;5074101;28;20208;-37
2024/01/18 07:40:19;;;;;;;1.93;1.80;;;;;;;;;;5059738;28;20224;-35
2024/01/18 07:42:50;;;;;;;3.10;1.90;;;;;;;;;;5084960;28;20208;-34
2024/01/18 07:45:22;;;;;;;1.60;1.50;;;;;;;;;;5066845;28;20201;-37
2024/01/18 07:47:57;;;;;;;1.97;1.40;;;;;;;;;;5082705;28;20227;-37
2024/01/18 07:50:30;;;;;;;1.60;1.50;;;;;;;;;;5059682;28;20220;-35
2024/01/18 08:00:50;;;;;;;2.53;1.40;;;;;;;;;;5087237;28;20244;-25
2024/01/18 08:03:27;;;;;;;1.40;1.30;;;;;;;;;;5077790;28;20201;-26
2024/01/18 08:05:59;;;;;;;1.73;0.93;;;;;;;;;;5067110;28;20236;-25
2024/01/18 08:08:33;;;;;;;1.20;1.10;;;;;;;;;;5074512;28;20685;-26
2024/01/18 08:11:02;;;;;;;1.43;1.33;;;;;;;;;;5075400;28;20236;-29
2024/01/18 08:13:33;;;;;;;3.33;1.30;;;;;;;;;;5071240;28;20207;-25
2024/01/18 08:18:53;;;;;;;1.53;1.43;;;;;;;;;;5057314;28;20308;-31
2024/01/18 08:21:28;;;;;;;2.37;1.83;;;;;;;;;;5042874;28;20218;-30
2024/01/18 08:24:05;;;;;;;1.87;1.77;;;;;;;;;;5045497;28;20210;-34
2024/01/18 08:29:18;;;;;;;1.63;1.37;;;;;;;;;;5026373;28;20206;-31
2024/01/18 08:31:54;;;;;;;1.70;1.60;;;;;;;;;;5041269;28;20225;-31
2024/01/18 08:34:41;;;;;;;1.73;1.63;;;;;;;;;;5020110;28;20325;-33
2024/01/18 08:37:26;;;;;;;1.43;1.33;;;;;;;;;;5022307;28;20203;-34
2024/01/18 08:40:01;;;;;;;1.27;1.20;;;;;;;;;;5041700;28;20269;-31
2024/01/18 08:42:52;;;;;;;1.37;1.27;;;;;;;;;;5030476;28;20205;-31
2024/01/18 08:45:30;;;;;;;0.77;0.77;;;;;;;;;;5023840;28;20233;-36
2024/01/18 08:48:10;;;;;;;1.17;1.17;;;;;;;;;;5032874;28;20234;-35
2024/01/18 08:50:47;;;;;;;2.73;1.50;;;;;;;;;;5033823;28;20253;-32
2024/01/18 09:01:13;;;;;;;4.10;3.10;;;;;;;;;;5071548;28;20233;-31
2024/01/18 09:03:47;;;;;;;4.07;2.73;;;;;;;;;;5067496;28;20651;-32
2024/01/18 09:06:32;;;;;;;6.63;3.33;;;;;;;;;;5069341;28;20204;-31
2024/01/18 09:09:16;;;;;;;4.30;2.80;;;;;;;;;;5072309;28;20310;-32
2024/01/18 09:11:52;;;;;;;3.50;2.77;;;;;;;;;;5070898;28;20209;-31
2024/01/18 09:14:24;;;;;;;1.90;1.73;;;;;;;;;;5065004;28;20212;-31
2024/01/18 09:16:57;;;;;;;3.90;2.67;;;;;;;;;;5073115;28;20205;-33
2024/01/18 09:19:44;;;;;;;4.60;2.63;;;;;;;;;;5060706;28;20244;-30
2024/01/18 09:22:27;;;;;;;6.57;3.17;;;;;;;;;;5071833;28;20263;-35
2024/01/18 09:25:09;;;;;;;2.30;2.10;;;;;;;;;;5072763;28;20256;-30
2024/01/18 09:27:47;;;;;;;3.47;2.23;;;;;;;;;;5065851;28;20229;-34
2024/01/18 09:33:21;;;;;;;2.27;2.07;;;;;;;;;;5074332;28;20240;-30
2024/01/18 09:35:58;;;;;;;2.33;2.13;;;;;;;;;;5067278;28;20243;-32
2024/01/18 09:38:33;;;;;;;2.57;2.37;;;;;;;;;;5080364;28;20221;-37
2024/01/18 09:41:07;;;;;;;3.63;2.50;;;;;;;;;;5080655;28;20284;-35
2024/01/18 09:46:38;;;;;;;2.60;2.30;;;;;;;;;;5068738;28;20217;-36
2024/01/18 09:49:09;;;;;;;2.73;2.50;;;;;;;;;;5068963;28;20334;-34
2024/01/18 09:51:43;;;;;;;2.70;2.50;;;;;;;;;;5071552;28;20212;-32
2024/01/18 09:54:22;;;;;;;2.93;1.80;;;;;;;;;;5081021;28;20220;-33
2024/01/18 09:56:54;;;;;;;2.30;2.03;;;;;;;;;;5072513;28;20295;-34
2024/01/18 09:59:24;;;;;;;1.80;1.70;;;;;;;;;;5063793;28;20563;-34
2024/01/18 10:01:59;;;;;;;1.40;1.30;;;;;;;;;;5087280;28;20656;-35
2024/01/18 10:04:35;;;;;;;1.70;1.60;;;;;;;;;;5063567;28;20197;-35
2024/01/18 10:07:20;;;;;;;1.60;1.50;;;;;;;;;;5077157;28;20698;-36
2024/01/18 10:09:55;;;;;;;2.00;1.50;;;;;;;;;;5084187;28;20301;-34
2024/01/18 10:12:47;;;;;;;1.07;0.80;;;;;;;;;;5065046;28;20328;-32
2024/01/18 10:15:37;;;;;;;0.87;0.87;;;;;;;;;;5065073;28;20294;-29
2024/01/18 10:18:15;;;;;;;1.00;1.00;;;;;;;;;;5083158;28;20635;-32
2024/01/18 10:20:56;;;;;;;1.10;1.10;;;;;;;;;;5074634;28;20311;-34
2024/01/18 10:23:30;;;;;;;1.07;1.03;;;;;;;;;;5084071;28;20220;-33
2024/01/18 10:26:21;;;;;;;0.30;0.30;;;;;;;;;;5076229;28;20209;-30
2024/01/18 10:28:59;;;;;;;2.23;1.10;;;;;;;;;;5061661;28;20319;-33
2024/01/18 10:31:32;;;;;;;0.70;0.70;;;;;;;;;;5075551;28;20201;-34
2024/01/18 10:34:06;;;;;;;3.77;1.10;;;;;;;;;;5073078;28;20209;-34
2024/01/18 10:36:43;;;;;;;1.30;0.73;;;;;;;;;;5063518;28;20206;-33
2024/01/18 10:39:24;;;;;;;1.10;1.10;;;;;;;;;;5072028;28;20205;-31
2024/01/18 10:47:18;;;;;;;0.40;0.40;;;;;;;;;;5073643;28;20224;-27
2024/01/18 10:49:55;;;;;;;0.80;0.80;;;;;;;;;;5065756;28;20221;-26
2024/01/18 10:52:30;;;;;;;0.70;0.70;;;;;;;;;;5070981;28;20213;-26
2024/01/18 10:55:03;;;;;;;0.63;0.63;;;;;;;;;;5063649;28;20220;-28
2024/01/18 10:57:48;;;;;;;0.60;0.60;;;;;;;;;;5049615;28;20209;-25
2024/01/18 11:00:28;;;;;;;0.90;0.90;;;;;;;;;;5063085;28;20292;-26
2024/01/18 11:06:08;;;;;;;1.10;1.10;;;;;;;;;;5050737;28;20222;-28
2024/01/18 11:08:38;;;;;;;0.50;0.50;;;;;;;;;;5066261;28;20235;-25
2024/01/18 11:11:18;;;;;;;1.00;1.00;;;;;;;;;;5058491;28;20225;-25
2024/01/18 11:13:52;;;;;;;0.70;0.70;;;;;;;;;;5048635;28;20209;-27
2024/01/18 11:16:29;;;;;;;0.90;0.90;;;;;;;;;;5068304;28;20216;-25
2024/01/18 11:19:03;;;;;;;1.00;1.00;;;;;;;;;;5064529;28;20283;-28
2024/01/18 11:29:32;;;;;;;1.10;1.10;;;;;;;;;;5076719;28;20317;-27
2024/01/18 11:32:07;;;;;;;0.90;0.90;;;;;;;;;;5073826;28;20205;-26
2024/01/18 11:34:51;;;;;;;1.40;1.27;;;;;;;;;;5065192;28;20214;-28
2024/01/18 11:37:33;;;;;;;0.23;0.23;;;;;;;;;;5072587;28;20205;-26
2024/01/18 11:43:02;;;;;;;0.93;0.90;;;;;;;;;;5082555;28;20239;-28
2024/01/18 11:45:48;;;;;;;1.00;1.00;;;;;;;;;;5065203;28;20255;-27
2024/01/18 11:48:24;;;;;;;1.13;1.03;;;;;;;;;;5073966;28;20221;-24
2024/01/18 11:51:14;;;;;;;1.00;0.97;;;;;;;;;;5060467;28;20230;-25
2024/01/18 11:54:08;;;;;;;0.80;0.80;;;;;;;;;;5066979;28;20643;-26
2024/01/18 11:59:49;;;;;;;1.17;0.80;;;;;;;;;;5065889;28;20229;-27
2024/01/18 12:07:51;;;;;;;2.03;1.17;;;;;;;;;;5060278;28;20296;-26
2024/01/18 12:10:40;;;;;;;1.73;1.30;;;;;;;;;;5069305;28;20228;-25
2024/01/18 12:13:11;;;;;;;2.30;1.43;;;;;;;;;;5049653;28;20252;-26
2024/01/18 12:15:49;;;;;;;1.33;1.13;;;;;;;;;;5058433;28;20221;-25
2024/01/18 12:18:30;;;;;;;0.70;0.70;;;;;;;;;;5072894;28;20289;-26
2024/01/18 12:23:47;;;;;;;1.27;1.17;;;;;;;;;;5067690;28;20212;-25
2024/01/18 12:26:25;;;;;;;1.67;1.10;;;;;;;;;;5070276;28;20219;-26
2024/01/18 12:31:35;;;;;;;0.87;0.87;;;;;;;;;;5096071;23;20293;-28
2024/01/18 12:34:07;;;;;;;2.63;1.70;;;;;;;;;;5069617;28;20224;-26
2024/01/18 12:36:46;;;;;;;1.60;1.50;;;;;;;;;;5074443;28;20208;-26
2024/01/18 12:39:22;;;;;;;1.17;1.00;;;;;;;;;;5093116;28;20208;-24
2024/01/18 12:42:01;;;;;;;2.03;1.83;;;;;;;;;;5093443;28;20253;-24
2024/01/18 12:44:38;;;;;;;1.93;1.80;;;;;;;;;;5066532;28;20232;-25
2024/01/18 12:47:18;;;;;;;1.60;1.50;;;;;;;;;;5066405;28;20201;-26
2024/01/18 12:49:50;;;;;;;2.70;2.37;;;;;;;;;;5063955;28;20228;-28
2024/01/18 12:52:24;;;;;;;1.57;1.13;;;;;;;;;;5073045;28;20205;-27
2024/01/18 12:55:01;;;;;;;1.50;1.40;;;;;;;;;;5081630;28;20200;-25
2024/01/18 12:57:40;;;;;;;13.23;7.40;;;;;;;;;;5071740;28;20308;-28
2024/01/18 13:00:13;;;;;;;1.40;1.30;;;;;;;;;;5073028;28;20396;-28
2024/01/18 13:02:43;;;;;;;2.17;1.83;;;;;;;;;;5073818;28;20224;-27
2024/01/18 13:05:16;;;;;;;1.13;1.13;;;;;;;;;;5064053;28;20213;-27
2024/01/18 13:07:47;;;;;;;2.87;2.63;;;;;;;;;;5079230;28;20201;-26
2024/01/18 13:10:20;;;;;;;3.90;1.97;;;;;;;;;;5127310;23;20236;-30
2024/01/18 13:13:04;;;;;;;1.23;1.23;;;;;;;;;;5072816;28;20205;-31
2024/01/18 13:18:34;;;;;;;1.70;1.60;;;;;;;;;;5081053;28;20205;-31
2024/01/18 13:21:16;;;;;;;1.40;1.30;;;;;;;;;;5082669;28;20235;-29
2024/01/18 13:23:54;;;;;;;0.90;0.90;;;;;;;;;;5092911;28;20200;-32
2024/01/18 13:26:37;;;;;;;2.37;2.17;;;;;;;;;;5092876;28;20204;-32
2024/01/18 13:34:14;;;;;;;2.37;2.07;;;;;;;;;;5046717;28;20214;-25
2024/01/18 13:36:44;;;;;;;2.43;1.93;;;;;;;;;;5053851;28;20205;-26
2024/01/18 13:39:18;;;;;;;2.47;2.27;;;;;;;;;;5060140;28;20597;-24
2024/01/18 13:41:47;;;;;;;4.23;2.90;;;;;;;;;;5068497;28;20205;-27
2024/01/18 13:44:15;;;;;;;2.53;2.30;;;;;;;;;;5052537;28;20202;-25
2024/01/18 13:46:52;;;;;;;3.97;2.80;;;;;;;;;;5052767;28;20232;-27
2024/01/18 13:49:25;;;;;;;3.50;2.63;;;;;;;;;;5046644;28;20280;-27
2024/01/18 13:51:53;;;;;;;2.43;2.23;;;;;;;;;;5053768;28;20536;-27
2024/01/18 13:54:22;;;;;;;1.03;1.00;;;;;;;;;;5065588;28;20744;-26
2024/01/18 13:56:50;;;;;;;2.03;1.93;;;;;;;;;;5064066;28;20696;-27
2024/01/18 13:59:20;;;;;;;2.57;2.37;;;;;;;;;;5051153;28;20230;-26
2024/01/18 14:04:20;;;;;;;2.97;2.60;;;;;;;;;;5057891;28;20210;-26
2024/01/18 14:06:53;;;;;;;3.30;3.00;;;;;;;;;;5048492;28;20640;-27
2024/01/18 14:09:22;;;;;;;2.80;2.60;;;;;;;;;;5063788;28;20230;-26
2024/01/18 14:11:59;;;;;;;2.57;2.37;;;;;;;;;;5063890;28;20209;-27
2024/01/18 14:14:32;;;;;;;2.27;2.07;;;;;;;;;;5056489;28;20202;-27
2024/01/18 14:17:08;;;;;;;3.43;3.10;;;;;;;;;;5051126;28;20205;-25
2024/01/18 14:19:39;;;;;;;3.70;3.20;;;;;;;;;;5152009;23;20217;-28
2024/01/18 14:22:14;;;;;;;1.10;1.10;;;;;;;;;;5011777;28;20217;-28
2024/01/18 14:24:47;;;;;;;3.80;2.97;;;;;;;;;;5024446;28;20229;-26
2024/01/18 14:27:22;;;;;;;4.23;3.83;;;;;;;;;;5577384;23;20316;-26
2024/01/18 14:29:53;;;;;;;4.20;3.77;;;;;;;;;;5047325;28;20236;-25
2024/01/18 14:32:29;;;;;;;4.43;4.03;;;;;;;;;;5055844;28;20206;-25
2024/01/18 14:35:01;;;;;;;1.07;1.07;;;;;;;;;;5040860;28;20207;-27
2024/01/18 14:37:35;;;;;;;5.53;4.53;;;;;;;;;;5057887;28;20210;-25
2024/01/18 14:40:06;;;;;;;4.10;3.57;;;;;;;;;;5038355;28;20225;-25
2024/01/18 14:42:38;;;;;;;6.50;4.23;;;;;;;;;;5063763;28;20209;-27
2024/01/18 14:45:07;;;;;;;4.53;4.13;;;;;;;;;;5046701;28;20228;-27
2024/01/18 14:50:12;;;;;;;5.67;4.47;;;;;;;;;;5541337;23;20234;-26
2024/01/18 14:57:56;;;;;;;4.77;3.40;;;;;;;;;;5023422;28;20269;-30
2024/01/18 15:00:24;;;;;;;1.77;0.93;;;;;;;;;;5012396;28;20258;-34
2024/01/18 15:03:24;;;;;;;3.33;3.03;;;;;;;;;;5019529;28;20640;-35
2024/01/18 15:05:55;;;;;;;2.90;2.57;;;;;;;;;;4988299;28;20239;-35
2024/01/18 15:08:26;;;;;;;5.87;5.07;;;;;;;;;;5015573;28;20298;-30
2024/01/18 15:10:58;;;;;;;2.43;2.20;;;;;;;;;;5007732;28;20238;-35
2024/01/18 15:13:29;;;;;;;4.23;3.83;;;;;;;;;;4997493;28;20219;-32
2024/01/18 15:15:58;;;;;;;5.03;4.37;;;;;;;;;;5012110;28;20207;-34
2024/01/18 15:18:25;;;;;;;4.10;3.47;;;;;;;;;;5011423;28;20206;-32
2024/01/18 15:20:53;;;;;;;3.83;3.30;;;;;;;;;;5002735;28;20223;-37
2024/01/18 15:23:23;;;;;;;3.97;2.77;;;;;;;;;;5011471;28;20204;-36
2024/01/18 15:25:55;;;;;;;6.67;4.90;;;;;;;;;;5009785;28;20207;-37
2024/01/18 15:28:33;;;;;;;0.63;0.63;;;;;;;;;;5015955;28;20211;-33
2024/01/18 15:31:03;;;;;;;4.23;3.83;;;;;;;;;;5014848;28;20219;-37
2024/01/18 15:33:31;;;;;;;7.90;6.13;;;;;;;;;;5014402;28;20215;-36
2024/01/18 15:35:59;;;;;;;4.40;2.37;;;;;;;;;;5009062;28;20230;-37
2024/01/18 15:38:27;;;;;;;6.43;5.27;;;;;;;;;;5010007;28;20208;-33
2024/01/18 15:41:00;;;;;;;6.07;5.03;;;;;;;;;;5722631;23;20215;-27
2024/01/18 15:43:32;;;;;;;3.30;2.90;;;;;;;;;;5046907;28;20277;-25
2024/01/18 15:48:38;;;;;;;6.70;4.23;;;;;;;;;;4990030;28;20620;-24
2024/01/18 15:53:41;;;;;;;6.40;5.30;;;;;;;;;;4992421;28;20227;-30
2024/01/18 15:56:11;;;;;;;6.20;4.47;;;;;;;;;;5005326;28;20610;-24
2024/01/18 15:58:39;;;;;;;6.93;3.60;;;;;;;;;;4982718;28;20212;-26
2024/01/18 16:01:09;;;;;;;7.57;5.67;;;;;;;;;;4987073;28;20248;-27
2024/01/18 16:03:42;;;;;;;7.33;5.80;;;;;;;;;;4994793;28;20240;-25
2024/01/18 16:06:14;;;;;;;7.90;5.83;;;;;;;;;;4988896;28;20219;-27
2024/01/18 16:08:42;;;;;;;11.00;5.50;;;;;;;;;;4992736;28;20231;-25
2024/01/18 16:11:11;;;;;;;7.67;5.97;;;;;;;;;;4993068;28;20228;-23
2024/01/18 16:13:48;;;;;;;8.83;5.50;;;;;;;;;;4991177;28;20212;-26
2024/01/18 16:16:17;;;;;;;2.10;1.97;;;;;;;;;;4977144;28;20208;-25
2024/01/18 16:18:48;;;;;;;2.93;2.67;;;;;;;;;;4990690;28;20262;-26
2024/01/18 16:21:21;;;;;;;6.13;5.23;;;;;;;;;;4987875;28;20252;-25
2024/01/18 16:23:52;;;;;;;9.40;6.23;;;;;;;;;;4992473;28;20212;-26
2024/01/18 16:26:22;;;;;;;2.10;1.80;;;;;;;;;;4993599;28;20649;-26
2024/01/18 16:28:51;;;;;;;6.90;5.10;;;;;;;;;;4989483;28;21080;-25
2024/01/18 16:31:18;;;;;;;8.00;6.00;;;;;;;;;;4992360;28;20272;-26
2024/01/18 16:33:49;;;;;;;9.63;6.20;;;;;;;;;;4992606;28;20214;-28
2024/01/18 16:36:21;;;;;;;9.17;6.20;;;;;;;;;;4999326;28;20212;-25
2024/01/18 16:38:53;;;;;;;8.70;6.63;;;;;;;;;;4993737;28;20230;-24
2024/01/18 16:41:26;;;;;;;7.27;5.03;;;;;;;;;;4994187;28;20242;-27
2024/01/18 16:43:55;;;;;;;5.23;4.10;;;;;;;;;;4991411;28;20208;-25
2024/01/18 16:46:27;;;;;;;9.60;7.37;;;;;;;;;;4989035;28;20258;-26
2024/01/18 16:48:57;;;;;;;8.13;5.87;;;;;;;;;;4991769;28;20234;-28
2024/01/18 16:51:26;;;;;;;8.63;6.77;;;;;;;;;;4988804;28;20364;-25
2024/01/18 16:53:58;;;;;;;9.67;6.67;;;;;;;;;;5012905;28;20210;-24
2024/01/18 16:56:28;;;;;;;10.00;6.97;;;;;;;;;;5013657;28;20261;-25
2024/01/18 16:59:02;;;;;;;8.03;5.63;;;;;;;;;;5011182;28;20211;-28
2024/01/18 17:01:30;;;;;;;8.23;6.27;;;;;;;;;;5009630;28;20211;-25
2024/01/18 17:04:00;;;;;;;9.33;5.77;;;;;;;;;;5009691;28;20203;-27
2024/01/18 17:06:29;;;;;;;5.53;3.80;;;;;;;;;;5006145;28;20223;-25
2024/01/18 17:09:00;;;;;;;10.03;7.03;;;;;;;;;;5005710;28;20727;-25
2024/01/18 17:11:28;;;;;;;8.13;6.10;;;;;;;;;;5012859;28;20223;-24
2024/01/18 17:13:59;;;;;;;9.30;7.33;;;;;;;;;;5012951;28;20286;-27
2024/01/18 17:16:33;;;;;;;8.30;6.47;;;;;;;;;;5008541;28;20222;-27
2024/01/18 17:19:05;;;;;;;9.87;6.37;;;;;;;;;;5011049;28;20239;-24
2024/01/18 17:21:34;;;;;;;8.60;7.43;;;;;;;;;;5011053;28;20215;-27
2024/01/18 17:24:06;;;;;;;11.90;7.17;;;;;;;;;;5012141;28;20207;-24